Terminal Aerodrome Forecast
Issued by NWS Duluth, MN

Home | Current Version | Previous Version | Text Only | Print | Product List | Glossary On
Versions: 1 2 3 4 5 6 7 8 9 10 11 12 13 14 15 16 17 18 19 20 21 22 23 24
000
FTUS43 KDLH 181700
TAFINL
TAF
KINL 181728Z 1818/1918 VRB03KT P6SM VCSH OVC004
      TEMPO 1818/1820 4SM -SHRA BR SCT004 OVC007
     FM182000 VRB03KT P6SM VCSH SCT004 OVC007
     FM190300 00000KT 4SM BR OVC004
     FM190600 00000KT 3/4SM BR OVC002
     FM191500 02002KT 2SM BR OVC007=

USA.gov is the U.S. government's official web portal to all federal, state and local government web resources and services.